This is the latest recevied weather packets stored in our database for station/object 9W2IJB-3. If no packets are shown the sender has not sent any weather packets the latest 10 day(s).
| Time | Temp. | Humidity | Pressure | Rain* | Wind** | Luminosity | Snow |
|---|---|---|---|---|---|---|---|
| 1777712283 | 26.67° C | 74% | 1018.8 hPa | - | - | - | - |
| 1777711083 | 26.11° C | 74% | 1018.9 hPa | - | - | - | - |
| 1777709883 | 26.67° C | 73% | 1019.2 hPa | - | - | - | - |
| 1777708683 | 26.67° C | 74% | 1018.9 hPa | - | - | - | - |
| 1777707483 | 26.67° C | 75% | 1019.3 hPa | - | - | - | - |
| 1777706282 | 26.11° C | 74% | 1019.6 hPa | - | - | - | - |
| 1777705083 | 26.11° C | 74% | 1019.9 hPa | - | - | - | - |
| 1777703883 | 26.67° C | 73% | 1019.8 hPa | - | - | - | - |
| 1777702684 | 27.22° C | 72% | 1020.5 hPa | - | - | - | - |
| 1777701482 | 28.33° C | 71% | 1020.8 hPa | - | - | - | - |
| 1777700282 | 28.89° C | 69% | 1020.9 hPa | - | - | - | - |
| 1777697883 | 29.44° C | 68% | 1021.6 hPa | - | - | - | - |
| 1777696683 | 29.44° C | 67% | 1022 hPa | - | - | - | - |
| 1777695483 | 28.89° C | 70% | 1022.3 hPa | - | - | - | - |
| 1777694283 | 29.44° C | 68% | 1022.6 hPa | - | - | - | - |
| 1777693083 | 28.33° C | 71% | 1022.7 hPa | - | - | - | - |
| 1777691883 | 27.22° C | 73% | 1023 hPa | - | - | - | - |
| 1777690683 | 27.22° C | 72% | 1023 hPa | - | - | - | - |
| 1777689483 | 27.22° C | 72% | 1022.9 hPa | - | - | - | - |
| 1777688283 | 27.78° C | 71% | 1022.7 hPa | - | - | - | - |
| 1777687082 | 27.78° C | 71% | 1022.4 hPa | - | - | - | - |
| 1777685882 | 27.78° C | 72% | 1022.4 hPa | - | - | - | - |
| 1777684718 | 27.22° C | 73% | 1022.3 hPa | - | - | - | - |
| 1777684682 | 27.22° C | 73% | 1022.3 hPa | - | - | - | - |
| 1777683482 | 26.67° C | 74% | 1022.1 hPa | - | - | - | - |
* Rain since midnight (hover to see other rain measurements)
** Current wind speed in m/s (hover to see current wind gust speed)